createdAt,value
2022-08-31T00:00:28.432Z,5.22
2022-08-31T00:03:13.869Z,5.28
2022-08-31T00:05:43.419Z,5.40
2022-08-31T00:08:11.639Z,10.27
2022-08-31T00:10:41.511Z,5.78
2022-08-31T00:13:13.855Z,5.22
2022-08-31T00:15:43.051Z,5.68
2022-08-31T00:18:11.688Z,5.63
2022-08-31T00:20:39.711Z,5.22
2022-08-31T00:23:11.292Z,5.13
2022-08-31T00:25:41.432Z,4.60
2022-08-31T00:28:10.204Z,5.05
2022-08-31T00:30:38.492Z,5.32
2022-08-31T00:33:06.594Z,4.88
2022-08-31T00:35:36.717Z,5.25
2022-08-31T00:38:05.033Z,5.28
2022-08-31T00:40:38.159Z,5.40
2022-08-31T00:43:12.758Z,5.25
2022-08-31T00:45:40.699Z,5.65
2022-08-31T00:48:08.588Z,6.00
2022-08-31T00:50:36.436Z,6.15
2022-08-31T00:53:05.410Z,6.63
2022-08-31T00:55:38.077Z,7.18
2022-08-31T00:58:10.093Z,6.15
2022-08-31T01:00:38.452Z,6.68
2022-08-31T01:03:08.123Z,6.50
2022-08-31T01:05:37.504Z,6.68
2022-08-31T01:08:07.009Z,7.13
2022-08-31T01:10:40.093Z,14.40
2022-08-31T01:13:09.098Z,6.82
2022-08-31T01:15:38.792Z,6.82
2022-08-31T01:18:08.300Z,6.60
2022-08-31T01:20:49.161Z,7.00
2022-08-31T01:23:22.500Z,8.95
2022-08-31T01:25:52.604Z,5.05
2022-08-31T01:28:20.851Z,5.13
2022-08-31T01:31:00.260Z,5.18
2022-08-31T01:33:28.654Z,4.70
2022-08-31T01:35:57.214Z,5.68
2022-08-31T01:38:26.803Z,5.60
2022-08-31T01:40:57.702Z,5.60
2022-08-31T01:43:26.500Z,8.73
2022-08-31T01:45:54.494Z,8.65
2022-08-31T01:48:23.598Z,8.93
2022-08-31T01:50:51.384Z,12.70
2022-08-31T01:53:19.413Z,11.15
2022-08-31T01:55:48.788Z,10.68
2022-08-31T01:58:16.679Z,10.75
2022-08-31T02:00:45.537Z,10.55
2022-08-31T02:03:13.541Z,10.23
2022-08-31T02:05:42.012Z,9.88
2022-08-31T02:08:11.757Z,8.30
2022-08-31T02:10:39.751Z,9.07
2022-08-31T02:13:08.996Z,10.65
2022-08-31T02:15:38.595Z,9.50
2022-08-31T02:18:07.061Z,10.98
2022-08-31T02:20:35.420Z,10.10
2022-08-31T02:23:03.533Z,11.82
2022-08-31T02:25:31.868Z,10.65
2022-08-31T02:27:59.660Z,9.65
2022-08-31T02:30:29.266Z,9.57
2022-08-31T02:32:57.091Z,8.15
2022-08-31T02:35:25.281Z,7.82
2022-08-31T02:37:53.036Z,7.57
2022-08-31T02:40:20.946Z,7.95
2022-08-31T02:42:52.898Z,8.27
2022-08-31T02:45:22.322Z,9.63
2022-08-31T02:47:52.173Z,9.07
2022-08-31T02:50:20.055Z,8.48
2022-08-31T02:52:47.956Z,8.27
2022-08-31T02:55:16.142Z,8.20
2022-08-31T02:57:43.871Z,8.93
2022-08-31T03:00:13.449Z,8.00
2022-08-31T03:02:41.468Z,7.65
2022-08-31T03:05:11.692Z,8.38
2022-08-31T03:07:39.700Z,7.78
2022-08-31T03:10:11.510Z,8.15
2022-08-31T03:12:39.702Z,7.60
2022-08-31T03:15:09.416Z,7.18
2022-08-31T03:17:37.673Z,7.43
2022-08-31T03:20:07.238Z,7.43
2022-08-31T03:22:36.421Z,7.60
2022-08-31T03:25:06.052Z,8.15
2022-08-31T03:27:34.353Z,8.35
2022-08-31T03:30:02.149Z,7.65
2022-08-31T03:32:30.922Z,7.97
2022-08-31T03:35:01.291Z,8.10
2022-08-31T03:37:29.431Z,7.18
2022-08-31T03:39:58.991Z,7.80
2022-08-31T03:42:27.574Z,8.68
2022-08-31T03:44:56.537Z,9.20
2022-08-31T03:47:24.318Z,9.00
2022-08-31T03:49:56.346Z,9.25
2022-08-31T03:52:24.102Z,10.13
2022-08-31T03:54:51.828Z,8.85
2022-08-31T03:57:21.120Z,9.70
2022-08-31T03:59:48.928Z,9.10
2022-08-31T04:02:16.750Z,9.10
2022-08-31T04:04:44.519Z,9.85
2022-08-31T04:07:16.504Z,9.10
2022-08-31T04:09:45.118Z,8.88
2022-08-31T04:12:12.945Z,8.82
2022-08-31T04:14:42.326Z,9.85
2022-08-31T04:17:11.181Z,9.32
2022-08-31T04:19:41.061Z,8.90
2022-08-31T04:22:09.530Z,9.05
2022-08-31T04:24:37.491Z,8.60
2022-08-31T04:27:05.802Z,8.75
2022-08-31T04:29:33.619Z,8.48
2022-08-31T04:32:02.788Z,9.30
2022-08-31T04:34:30.546Z,8.73
2022-08-31T04:36:58.394Z,7.78
2022-08-31T04:39:26.158Z,7.32
2022-08-31T04:42:00.859Z,7.90
2022-08-31T04:44:28.725Z,9.20
2022-08-31T04:46:56.551Z,9.43
2022-08-31T04:49:25.706Z,9.50
2022-08-31T04:51:53.457Z,8.82
2022-08-31T04:54:21.341Z,9.98
2022-08-31T04:56:49.377Z,10.00
2022-08-31T04:59:18.946Z,10.18
2022-08-31T05:01:47.040Z,10.85
2022-08-31T05:04:17.023Z,13.20
2022-08-31T05:06:47.819Z,12.10
2022-08-31T05:09:19.017Z,13.85
2022-08-31T05:11:47.114Z,13.37
2022-08-31T05:14:14.946Z,12.68
2022-08-31T05:16:43.717Z,12.55
2022-08-31T05:19:11.788Z,11.00
2022-08-31T05:21:41.253Z,9.05
2022-08-31T05:24:12.562Z,5.35
2022-08-31T05:26:44.431Z,6.28
2022-08-31T05:29:15.290Z,6.10
2022-08-31T05:31:47.085Z,6.18
2022-08-31T05:34:17.822Z,6.80
2022-08-31T05:36:47.427Z,6.78
2022-08-31T05:39:16.931Z,6.00
2022-08-31T05:41:46.697Z,6.68
2022-08-31T05:44:15.386Z,6.10
2022-08-31T05:46:43.715Z,6.43
2022-08-31T05:49:11.838Z,6.68
2022-08-31T05:51:40.357Z,6.15
2022-08-31T05:54:10.781Z,6.15
2022-08-31T05:56:41.890Z,7.57
2022-08-31T06:01:41.079Z,7.05
2022-08-31T06:04:10.428Z,6.25
2022-08-31T06:06:39.280Z,7.15
2022-08-31T06:09:08.613Z,6.10
2022-08-31T06:11:40.464Z,5.07
2022-08-31T06:14:10.902Z,4.60
2022-08-31T06:16:40.376Z,5.40
2022-08-31T06:19:08.685Z,6.32
2022-08-31T06:21:39.792Z,5.97
2022-08-31T06:24:18.452Z,5.97
2022-08-31T06:26:58.471Z,5.55
2022-08-31T06:29:31.601Z,4.82
2022-08-31T06:32:00.446Z,5.50
2022-08-31T06:34:29.474Z,6.47
2022-08-31T06:36:57.218Z,5.18
2022-08-31T06:39:25.322Z,5.25
2022-08-31T06:41:54.077Z,4.50
2022-08-31T06:44:22.595Z,5.03
2022-08-31T06:46:52.455Z,4.45
2022-08-31T06:49:20.929Z,4.35
2022-08-31T06:51:48.924Z,4.65
2022-08-31T06:54:29.463Z,4.68
2022-08-31T06:56:59.395Z,4.68
2022-08-31T06:59:29.135Z,4.68
2022-08-31T07:01:59.857Z,4.93
2022-08-31T07:04:28.726Z,5.22
2022-08-31T07:06:56.502Z,4.65
2022-08-31T07:09:25.085Z,5.40
2022-08-31T07:11:53.627Z,5.63
2022-08-31T07:14:24.843Z,5.45
2022-08-31T07:16:54.289Z,5.25
2022-08-31T07:19:24.409Z,4.60
2022-08-31T07:21:54.532Z,4.35
2022-08-31T07:24:24.333Z,5.55
2022-08-31T07:26:54.509Z,4.47
2022-08-31T07:29:23.910Z,5.07
2022-08-31T07:31:53.025Z,5.40
2022-08-31T07:34:25.670Z,6.18
2022-08-31T07:37:20.689Z,5.50
2022-08-31T07:40:07.815Z,5.55
2022-08-31T07:42:39.172Z,5.20
2022-08-31T07:45:11.648Z,5.72
2022-08-31T07:47:46.079Z,5.28
2022-08-31T07:50:15.067Z,5.88
2022-08-31T07:52:47.283Z,6.10
2022-08-31T07:55:17.943Z,6.45
2022-08-31T07:57:46.358Z,6.20
2022-08-31T08:00:21.045Z,6.05
2022-08-31T08:02:52.842Z,5.35
2022-08-31T08:05:27.416Z,5.10
2022-08-31T08:08:09.323Z,6.38
2022-08-31T08:10:52.314Z,5.50
2022-08-31T08:13:21.095Z,6.40
2022-08-31T08:15:50.774Z,6.32
2022-08-31T08:18:20.761Z,6.68
2022-08-31T08:20:49.438Z,6.22
2022-08-31T08:23:28.218Z,6.88
2022-08-31T08:26:01.601Z,5.45
2022-08-31T08:28:45.970Z,5.15
2022-08-31T08:31:19.158Z,6.22
2022-08-31T08:33:47.418Z,5.63
2022-08-31T08:36:18.151Z,5.68
2022-08-31T08:38:48.925Z,5.47
2022-08-31T08:41:20.020Z,5.75
2022-08-31T08:43:52.435Z,5.95
2022-08-31T08:46:36.844Z,5.55
2022-08-31T08:49:15.652Z,5.68
2022-08-31T08:51:44.768Z,5.30
2022-08-31T08:54:19.528Z,5.90
2022-08-31T08:56:49.194Z,5.97
2022-08-31T08:59:20.060Z,6.50
2022-08-31T09:01:53.028Z,6.55
2022-08-31T09:04:35.369Z,6.57
2022-08-31T09:07:22.911Z,5.30
2022-08-31T09:10:02.256Z,5.80
2022-08-31T09:12:42.962Z,5.13
2022-08-31T09:15:49.408Z,5.90
2022-08-31T09:18:33.606Z,6.47
2022-08-31T09:21:10.072Z,5.88
2022-08-31T09:23:49.209Z,5.93
2022-08-31T09:26:20.050Z,6.00
2022-08-31T09:28:49.365Z,6.45
2022-08-31T09:31:34.778Z,6.93
2022-08-31T09:34:03.902Z,6.35
2022-08-31T09:36:41.114Z,7.03
2022-08-31T09:39:24.950Z,6.80
2022-08-31T09:42:03.376Z,6.82
2022-08-31T09:44:35.249Z,6.70
2022-08-31T09:47:06.797Z,6.80
2022-08-31T09:49:37.744Z,6.95
2022-08-31T09:52:21.867Z,6.35
2022-08-31T09:55:13.762Z,8.05
2022-08-31T09:57:54.112Z,6.68
2022-08-31T10:00:38.904Z,6.53
2022-08-31T10:03:19.767Z,5.57
2022-08-31T10:05:50.551Z,6.00
2022-08-31T10:08:42.290Z,6.40
2022-08-31T10:11:15.745Z,5.50
2022-08-31T10:13:57.193Z,5.57
2022-08-31T10:16:30.495Z,5.65
2022-08-31T10:19:04.170Z,5.70
2022-08-31T10:21:43.954Z,5.38
2022-08-31T10:24:21.774Z,5.53
2022-08-31T10:26:57.092Z,5.35
2022-08-31T10:29:33.541Z,5.35
2022-08-31T10:32:06.097Z,5.30
2022-08-31T10:34:58.306Z,5.82
2022-08-31T10:37:36.725Z,6.20
2022-08-31T10:40:09.862Z,7.03
2022-08-31T10:42:42.517Z,6.53
2022-08-31T10:45:18.794Z,5.88
2022-08-31T10:47:49.539Z,5.68
2022-08-31T10:50:28.568Z,6.07
2022-08-31T10:53:09.123Z,5.93
2022-08-31T10:55:48.644Z,6.07
2022-08-31T10:58:25.828Z,7.25
2022-08-31T11:00:59.453Z,5.80
2022-08-31T11:03:43.472Z,6.45
2022-08-31T11:06:25.242Z,6.03
2022-08-31T11:09:03.020Z,5.90
2022-08-31T11:11:43.393Z,6.30
2022-08-31T11:14:49.872Z,5.82
2022-08-31T11:17:40.132Z,5.97
2022-08-31T11:20:42.979Z,5.30
2022-08-31T11:23:29.859Z,5.70
2022-08-31T11:26:46.152Z,5.30
2022-08-31T11:29:29.247Z,5.30
2022-08-31T11:32:01.876Z,5.18
2022-08-31T11:34:47.138Z,5.28
2022-08-31T11:37:55.769Z,5.95
2022-08-31T11:41:10.912Z,5.05
2022-08-31T11:43:51.963Z,5.63
2022-08-31T11:46:43.123Z,5.28
2022-08-31T11:49:11.917Z,6.28
2022-08-31T11:51:48.152Z,6.10
2022-08-31T11:54:42.019Z,6.03
2022-08-31T11:57:15.666Z,5.30
2022-08-31T11:59:45.988Z,6.13
2022-08-31T12:02:44.748Z,5.68
2022-08-31T12:05:13.546Z,5.55
2022-08-31T12:07:46.319Z,5.18
2022-08-31T12:10:46.442Z,5.85
2022-08-31T12:13:42.341Z,5.00
2022-08-31T12:16:22.809Z,4.90
2022-08-31T12:19:08.256Z,7.22
2022-08-31T12:22:02.738Z,5.80
2022-08-31T12:24:40.654Z,5.53
2022-08-31T12:27:27.527Z,5.60
2022-08-31T12:30:20.108Z,5.47
2022-08-31T12:32:59.171Z,5.88
2022-08-31T12:35:30.150Z,5.18
2022-08-31T12:38:00.383Z,5.20
2022-08-31T12:40:31.267Z,4.50
2022-08-31T12:43:06.853Z,3.50
2022-08-31T12:46:07.221Z,3.70
2022-08-31T12:48:46.970Z,4.18
2022-08-31T12:51:24.146Z,3.70
2022-08-31T12:54:09.003Z,4.28
2022-08-31T12:56:45.441Z,3.80
2022-08-31T12:59:45.665Z,3.60
2022-08-31T13:02:16.574Z,3.03
2022-08-31T13:04:46.319Z,3.70
2022-08-31T13:07:16.229Z,3.47
2022-08-31T13:09:45.855Z,3.55
2022-08-31T13:12:23.896Z,3.72
2022-08-31T13:14:51.624Z,3.25
2022-08-31T13:17:21.914Z,3.00
2022-08-31T13:19:52.678Z,3.53
2022-08-31T13:22:28.851Z,2.97
2022-08-31T13:25:10.577Z,3.25
2022-08-31T13:27:48.235Z,3.03
2022-08-31T13:30:19.686Z,3.40
2022-08-31T13:32:51.395Z,3.22
2022-08-31T13:38:03.870Z,3.30
2022-08-31T13:40:35.505Z,3.42
2022-08-31T13:43:07.501Z,3.63
2022-08-31T13:45:40.404Z,3.45
2022-08-31T13:48:14.922Z,3.80
2022-08-31T13:50:52.312Z,4.15
2022-08-31T13:53:39.644Z,4.32
2022-08-31T13:56:44.164Z,3.80
2022-08-31T13:59:26.559Z,4.00
2022-08-31T14:01:56.706Z,3.80
2022-08-31T14:05:00.690Z,3.55
2022-08-31T14:07:32.570Z,3.65
2022-08-31T14:12:36.266Z,3.78
2022-08-31T14:15:18.533Z,3.92
2022-08-31T14:20:53.407Z,3.22
2022-08-31T14:23:33.037Z,3.72
2022-08-31T14:26:02.925Z,3.40
2022-08-31T14:28:41.781Z,3.80
2022-08-31T14:31:22.897Z,3.33
2022-08-31T14:33:55.981Z,6.60
2022-08-31T14:36:26.375Z,4.28
2022-08-31T14:38:55.168Z,4.28
2022-08-31T14:41:30.992Z,4.32
2022-08-31T14:44:06.858Z,4.65
2022-08-31T14:46:38.682Z,4.10
2022-08-31T14:49:07.256Z,4.43
2022-08-31T14:51:39.109Z,4.05
2022-08-31T14:56:39.099Z,3.75
2022-08-31T14:59:16.150Z,3.88
2022-08-31T15:01:46.220Z,4.00
2022-08-31T15:04:16.456Z,4.57
2022-08-31T15:06:49.219Z,4.07
2022-08-31T15:09:17.109Z,4.15
2022-08-31T15:11:45.149Z,3.85
2022-08-31T15:14:13.914Z,3.70
2022-08-31T15:16:43.602Z,3.75
2022-08-31T15:19:14.180Z,3.95
2022-08-31T15:21:52.241Z,3.72
2022-08-31T15:24:23.342Z,3.60
2022-08-31T15:26:53.323Z,3.40
2022-08-31T15:29:24.883Z,3.28
2022-08-31T15:31:55.052Z,3.28
2022-08-31T15:34:26.554Z,2.90
2022-08-31T15:36:56.180Z,3.15
2022-08-31T15:39:24.772Z,3.30
2022-08-31T15:41:52.511Z,3.17
2022-08-31T15:44:20.747Z,3.50
2022-08-31T15:47:06.333Z,3.25
2022-08-31T15:49:37.518Z,3.45
2022-08-31T15:52:07.004Z,3.20
2022-08-31T15:54:35.752Z,3.20
2022-08-31T15:57:06.053Z,3.03
2022-08-31T15:59:34.687Z,3.95
2022-08-31T16:02:03.036Z,3.80
2022-08-31T16:04:31.673Z,3.58
2022-08-31T16:07:01.651Z,4.20
2022-08-31T16:09:29.398Z,3.83
2022-08-31T16:11:57.112Z,3.67
2022-08-31T16:14:24.943Z,3.67
2022-08-31T16:16:52.811Z,4.00
2022-08-31T16:19:34.633Z,4.00
2022-08-31T16:22:06.101Z,5.00
2022-08-31T16:24:37.055Z,4.45
2022-08-31T16:27:07.924Z,4.73
2022-08-31T16:29:37.134Z,4.40
2022-08-31T16:32:06.569Z,4.65
2022-08-31T16:34:35.464Z,5.03
2022-08-31T16:37:07.265Z,5.05
2022-08-31T16:39:37.089Z,5.10
2022-08-31T16:42:05.829Z,4.72
2022-08-31T16:44:36.651Z,4.45
2022-08-31T16:47:06.669Z,4.93
2022-08-31T16:49:34.089Z,6.00
2022-08-31T16:52:03.368Z,6.35
2022-08-31T16:54:33.974Z,7.00
2022-08-31T16:57:02.390Z,6.50
2022-08-31T16:59:30.681Z,8.13
2022-08-31T17:01:58.822Z,5.88
2022-08-31T17:04:51.070Z,6.57
2022-08-31T17:07:16.409Z,6.32
2022-08-31T17:09:46.142Z,6.10
2022-08-31T17:12:17.044Z,6.10
2022-08-31T17:14:48.210Z,8.38
2022-08-31T17:17:18.202Z,7.38
2022-08-31T17:19:46.944Z,6.45
2022-08-31T17:22:23.323Z,6.72
2022-08-31T17:24:57.764Z,7.43
2022-08-31T17:29:56.439Z,7.07
2022-08-31T17:32:27.605Z,7.95
2022-08-31T17:34:56.546Z,7.47
2022-08-31T17:37:28.367Z,7.30
2022-08-31T17:39:57.547Z,8.70
2022-08-31T17:42:28.076Z,8.27
2022-08-31T17:44:56.334Z,8.30
2022-08-31T17:47:26.504Z,8.38
2022-08-31T17:49:55.055Z,8.52
2022-08-31T17:52:23.797Z,8.98
2022-08-31T17:54:52.325Z,8.05
2022-08-31T17:57:24.824Z,8.30
2022-08-31T17:59:54.877Z,8.65
2022-08-31T18:02:27.543Z,8.18
2022-08-31T18:04:55.492Z,7.95
2022-08-31T18:07:23.271Z,7.68
2022-08-31T18:09:51.956Z,9.45
2022-08-31T18:12:22.832Z,9.50
2022-08-31T18:14:51.031Z,8.65
2022-08-31T18:17:22.146Z,8.32
2022-08-31T18:19:49.974Z,10.38
2022-08-31T18:22:18.351Z,8.70
2022-08-31T18:24:46.410Z,9.20
2022-08-31T18:27:16.116Z,8.55
2022-08-31T18:29:46.296Z,9.07
2022-08-31T18:32:15.277Z,8.48
2022-08-31T18:34:47.082Z,9.20
2022-08-31T18:37:16.195Z,8.18
2022-08-31T18:40:04.276Z,9.82
2022-08-31T18:42:50.645Z,8.80
2022-08-31T18:45:20.340Z,8.68
2022-08-31T18:48:20.898Z,8.00
2022-08-31T18:50:42.424Z,8.95
2022-08-31T18:53:11.037Z,9.90
2022-08-31T18:55:43.200Z,15.63
2022-08-31T18:58:11.109Z,11.77
2022-08-31T19:00:40.670Z,10.52
2022-08-31T19:03:08.831Z,11.10
2022-08-31T19:05:39.875Z,10.35
2022-08-31T19:08:08.124Z,10.10
2022-08-31T19:10:35.842Z,9.57
2022-08-31T19:13:07.697Z,9.57
2022-08-31T19:15:41.063Z,10.80
2022-08-31T19:18:09.166Z,9.05
2022-08-31T19:20:36.904Z,9.70
2022-08-31T19:23:04.693Z,9.52
2022-08-31T19:25:32.897Z,8.93
2022-08-31T19:28:01.616Z,9.90
2022-08-31T19:30:30.186Z,11.90
2022-08-31T19:32:59.340Z,10.35
2022-08-31T19:35:27.480Z,11.13
2022-08-31T19:37:56.664Z,10.82
2022-08-31T19:40:43.020Z,10.50
2022-08-31T19:46:15.935Z,10.43
2022-08-31T19:48:46.085Z,10.55
2022-08-31T19:51:15.525Z,10.65
2022-08-31T19:53:44.859Z,10.63
2022-08-31T19:56:14.670Z,11.60
2022-08-31T19:58:42.804Z,11.18
2022-08-31T20:01:11.305Z,10.45
2022-08-31T20:03:40.793Z,9.65
2022-08-31T20:06:13.335Z,10.50
2022-08-31T20:08:42.097Z,12.68
2022-08-31T20:11:11.057Z,11.02
2022-08-31T20:13:41.141Z,10.68
2022-08-31T20:16:09.808Z,11.52
2022-08-31T20:18:38.261Z,13.25
2022-08-31T20:21:17.303Z,14.75
2022-08-31T20:23:48.826Z,14.07
2022-08-31T20:26:18.901Z,14.38
2022-08-31T20:28:46.770Z,15.55
2022-08-31T20:31:16.603Z,14.25
2022-08-31T20:33:45.498Z,15.90
2022-08-31T20:36:18.939Z,15.93
2022-08-31T20:38:49.084Z,14.95
2022-08-31T20:41:17.284Z,16.10
2022-08-31T20:43:45.138Z,15.38
2022-08-31T20:46:34.480Z,17.00
2022-08-31T20:49:19.711Z,16.70
2022-08-31T20:51:47.581Z,17.02
2022-08-31T20:54:17.369Z,17.90
2022-08-31T20:56:45.675Z,17.70
2022-08-31T20:59:13.526Z,18.95
2022-08-31T21:01:41.678Z,17.35
2022-08-31T21:04:09.617Z,16.55
2022-08-31T21:06:37.912Z,17.17
2022-08-31T21:09:06.673Z,15.75
2022-08-31T21:11:40.581Z,15.70
2022-08-31T21:14:08.938Z,16.52
2022-08-31T21:16:36.766Z,15.93
2022-08-31T21:19:07.424Z,17.90
2022-08-31T21:21:35.316Z,17.02
2022-08-31T21:24:03.389Z,15.90
2022-08-31T21:26:31.142Z,17.65
2022-08-31T21:29:00.702Z,16.65
2022-08-31T21:31:29.513Z,16.70
2022-08-31T21:33:59.403Z,15.52
2022-08-31T21:36:28.458Z,16.05
2022-08-31T21:38:57.928Z,17.10
2022-08-31T21:41:28.271Z,16.73
2022-08-31T21:43:58.193Z,16.35
2022-08-31T21:46:29.318Z,15.98
2022-08-31T21:48:59.311Z,18.23
2022-08-31T21:51:29.534Z,16.80
2022-08-31T21:53:59.622Z,16.33
2022-08-31T21:56:29.910Z,16.27
2022-08-31T21:58:58.502Z,16.27
2022-08-31T22:01:29.914Z,16.65
2022-08-31T22:03:59.423Z,17.08
2022-08-31T22:06:31.511Z,17.25
2022-08-31T22:11:30.005Z,17.05
2022-08-31T22:13:59.792Z,17.52
2022-08-31T22:16:29.225Z,17.25
2022-08-31T22:19:01.225Z,16.80
2022-08-31T22:21:32.246Z,16.85
2022-08-31T22:24:03.155Z,15.48
2022-08-31T22:26:34.905Z,16.48
2022-08-31T22:29:02.709Z,16.63
2022-08-31T22:31:32.896Z,16.45
2022-08-31T22:34:00.749Z,15.50
2022-08-31T22:36:32.371Z,15.23
2022-08-31T22:39:03.117Z,16.48
2022-08-31T22:41:31.759Z,15.98
2022-08-31T22:44:00.435Z,15.52
2022-08-31T22:46:28.443Z,14.57
2022-08-31T22:48:58.531Z,15.75
2022-08-31T22:51:26.259Z,16.55
2022-08-31T22:53:54.273Z,15.95
2022-08-31T22:56:25.894Z,15.25
2022-08-31T22:58:55.204Z,14.32
2022-08-31T23:01:25.674Z,15.02
2022-08-31T23:03:55.148Z,13.65
2022-08-31T23:06:26.776Z,15.15
2022-08-31T23:08:56.491Z,15.18
2022-08-31T23:11:26.235Z,14.75
2022-08-31T23:13:56.673Z,14.77
2022-08-31T23:16:27.014Z,14.70
2022-08-31T23:18:57.647Z,14.30
2022-08-31T23:21:29.510Z,13.95
2022-08-31T23:23:57.960Z,13.70
2022-08-31T23:26:27.520Z,14.60
2022-08-31T23:28:55.764Z,14.18
2022-08-31T23:31:24.322Z,14.05
2022-08-31T23:33:53.495Z,14.27
2022-08-31T23:36:26.162Z,13.82
2022-08-31T23:38:56.693Z,14.38
2022-08-31T23:41:26.562Z,14.38
2022-08-31T23:43:56.738Z,16.35
2022-08-31T23:46:25.087Z,18.63
2022-08-31T23:48:54.216Z,17.90
2022-08-31T23:51:24.458Z,17.88
2022-08-31T23:53:55.251Z,17.77
2022-08-31T23:56:32.648Z,24.10
2022-08-31T23:59:02.010Z,17.67
